createdAt,value
2023-03-22T00:02:23.070Z,99919.09
2023-03-22T00:07:25.082Z,99910.97
2023-03-22T00:12:26.448Z,99905.63
2023-03-22T00:17:28.468Z,99903.97
2023-03-22T00:22:30.088Z,99888.25
2023-03-22T00:27:31.984Z,99895.97
2023-03-22T00:32:36.033Z,99888.56
2023-03-22T00:37:41.256Z,99883.78
2023-03-22T00:42:44.097Z,99878.47
2023-03-22T00:47:45.826Z,99877.78
2023-03-22T00:52:47.344Z,99879.19
2023-03-22T00:57:48.744Z,99869.78
2023-03-22T01:02:53.903Z,99868.09
2023-03-22T01:07:55.598Z,99862.91
2023-03-22T01:12:57.175Z,99857.72
2023-03-22T01:17:58.914Z,99863.31
2023-03-22T01:23:00.991Z,99858.25
2023-03-22T01:28:03.147Z,99870.31
2023-03-22T01:33:05.727Z,99844.66
2023-03-22T01:38:07.256Z,99843.97
2023-03-22T01:43:17.443Z,99854.34
2023-03-22T01:48:22.156Z,99848.75
2023-03-22T01:53:26.646Z,99845.66
2023-03-22T01:58:28.378Z,99839.63
2023-03-22T02:03:43.258Z,99838.09
2023-03-22T02:08:45.084Z,99819.47
2023-03-22T02:13:56.837Z,99824.53
2023-03-22T02:19:09.150Z,99816.53
2023-03-22T02:24:45.333Z,99806.16
2023-03-22T02:29:58.657Z,99812.03
2023-03-22T02:35:23.393Z,99819.03
2023-03-22T02:40:43.405Z,99797.16
2023-03-22T02:45:54.604Z,99807.78
2023-03-22T02:51:03.865Z,99815.03
2023-03-22T02:56:21.595Z,99804.25
2023-03-22T03:01:30.598Z,99805.75
2023-03-22T03:06:38.943Z,99812.72
2023-03-22T03:11:40.893Z,99804.31
2023-03-22T03:16:42.402Z,99803.41
2023-03-22T03:21:49.756Z,99799.81
2023-03-22T03:27:04.938Z,99798.09
2023-03-22T03:32:36.093Z,99796.41
2023-03-22T03:37:44.789Z,99788.56
2023-03-22T03:42:51.879Z,99783.66
2023-03-22T03:47:57.662Z,99778.00
2023-03-22T03:53:00.553Z,99778.72
2023-03-22T03:58:02.220Z,99772.81
2023-03-22T04:03:04.699Z,99776.44
2023-03-22T04:08:06.331Z,99771.78
2023-03-22T04:13:08.011Z,99771.53
2023-03-22T04:18:11.269Z,99763.16
2023-03-22T04:23:12.627Z,99772.56
2023-03-22T04:28:14.213Z,99753.50
2023-03-22T04:33:15.616Z,99751.81
2023-03-22T04:38:18.177Z,99737.53
2023-03-22T04:43:21.192Z,99727.75
2023-03-22T04:48:23.806Z,99736.88
2023-03-22T04:53:27.445Z,99736.03
2023-03-22T04:58:29.246Z,99740.78
2023-03-22T05:03:31.014Z,99733.31
2023-03-22T05:08:33.305Z,99737.09
2023-03-22T05:13:36.478Z,99735.97
2023-03-22T05:18:42.255Z,99744.19
2023-03-22T05:23:45.164Z,99739.84
2023-03-22T05:28:47.078Z,99737.72
2023-03-22T05:33:51.515Z,99744.97
2023-03-22T05:38:52.959Z,99748.63
2023-03-22T05:43:54.649Z,99751.34
2023-03-22T05:48:57.655Z,99751.06
2023-03-22T05:53:59.164Z,99752.78
2023-03-22T05:59:00.665Z,99762.44
2023-03-22T06:04:02.217Z,99758.78
2023-03-22T06:09:16.576Z,99749.03
2023-03-22T06:14:18.777Z,99752.94
2023-03-22T06:19:21.578Z,99739.13
2023-03-22T06:24:23.465Z,99747.03
2023-03-22T06:29:24.944Z,99756.91
2023-03-22T06:34:26.607Z,99761.31
2023-03-22T06:39:28.594Z,99759.22
2023-03-22T06:44:30.216Z,99772.72
2023-03-22T06:49:31.724Z,99779.06
2023-03-22T06:54:33.898Z,99769.53
2023-03-22T06:59:37.626Z,99775.31
2023-03-22T07:04:39.162Z,99776.44
2023-03-22T07:09:40.620Z,99773.97
2023-03-22T07:14:41.995Z,99780.97
2023-03-22T07:19:43.408Z,99772.44
2023-03-22T07:24:56.222Z,99782.94
2023-03-22T07:30:00.005Z,99770.59
2023-03-22T07:35:01.482Z,99765.53
2023-03-22T07:40:04.944Z,99763.84
2023-03-22T07:45:07.775Z,99765.94
2023-03-22T07:50:14.462Z,99764.38
2023-03-22T07:55:17.795Z,99753.09
2023-03-22T08:00:19.597Z,99759.00
2023-03-22T08:05:22.827Z,99745.91
2023-03-22T08:10:24.382Z,99747.38
2023-03-22T08:15:25.914Z,99758.56
2023-03-22T08:20:27.800Z,99755.78
2023-03-22T08:25:30.220Z,99748.19
2023-03-22T08:30:31.928Z,99751.16
2023-03-22T08:35:34.245Z,99755.44
2023-03-22T08:40:36.010Z,99751.34
2023-03-22T08:45:38.405Z,99748.50
2023-03-22T08:50:41.143Z,99750.88
2023-03-22T08:55:45.078Z,99741.94
2023-03-22T09:00:49.487Z,99732.88
2023-03-22T09:05:52.444Z,99726.84
2023-03-22T09:10:54.629Z,99721.00
2023-03-22T09:15:56.954Z,99724.56
2023-03-22T09:20:58.798Z,99721.88
2023-03-22T09:26:02.104Z,99710.47
2023-03-22T09:31:09.706Z,99713.97
2023-03-22T09:36:12.752Z,99703.59
2023-03-22T09:41:35.516Z,99698.75
2023-03-22T09:46:40.910Z,99701.22
2023-03-22T09:51:53.506Z,99680.97
2023-03-22T09:57:27.740Z,99675.06
2023-03-22T10:02:37.781Z,99675.94
2023-03-22T10:07:57.642Z,99666.59
2023-03-22T10:13:00.067Z,99654.16
2023-03-22T10:18:06.838Z,99666.25
2023-03-22T10:23:15.650Z,99656.53
2023-03-22T10:28:25.199Z,99672.78
2023-03-22T10:33:52.636Z,99658.41
2023-03-22T10:39:13.850Z,99657.13
2023-03-22T10:44:19.904Z,99643.22
2023-03-22T10:49:33.119Z,99650.41
2023-03-22T10:54:36.737Z,99652.19
2023-03-22T10:59:45.476Z,99645.97
2023-03-22T11:04:50.037Z,99637.38
2023-03-22T11:09:58.809Z,99649.94
2023-03-22T11:15:00.786Z,99639.88
2023-03-22T11:20:10.182Z,99632.31
2023-03-22T11:25:20.519Z,99627.78
2023-03-22T11:30:28.088Z,99626.50
2023-03-22T11:35:31.048Z,99607.09
2023-03-22T11:40:36.440Z,99599.31
2023-03-22T11:45:42.261Z,99614.28
2023-03-22T11:50:45.650Z,99580.72
2023-03-22T11:55:49.109Z,99578.28
2023-03-22T12:00:53.507Z,99574.53
2023-03-22T12:05:56.358Z,99560.25
2023-03-22T12:11:04.926Z,99558.94
2023-03-22T12:16:07.997Z,99557.09
2023-03-22T12:21:11.878Z,99560.06
2023-03-22T12:26:18.362Z,99554.19
2023-03-22T12:31:26.534Z,99584.44
2023-03-22T12:36:38.385Z,99554.75
2023-03-22T12:41:47.426Z,99553.00
2023-03-22T12:47:00.740Z,99547.63
2023-03-22T12:52:15.396Z,99537.16
2023-03-22T12:57:17.204Z,99520.81
2023-03-22T13:02:27.440Z,99529.72
2023-03-22T13:07:31.739Z,99535.59
2023-03-22T13:12:34.829Z,99503.31
2023-03-22T13:17:45.410Z,99511.34
2023-03-22T13:22:46.918Z,99502.91
2023-03-22T13:27:54.463Z,99498.44
2023-03-22T13:33:14.662Z,99489.63
2023-03-22T13:38:19.948Z,99488.88
2023-03-22T13:43:24.614Z,99471.88
2023-03-22T13:48:47.480Z,99475.22
2023-03-22T13:54:05.625Z,99474.25
2023-03-22T13:59:11.085Z,99472.16
2023-03-22T14:04:22.773Z,99464.13
2023-03-22T14:09:31.349Z,99469.09
2023-03-22T14:14:39.958Z,99470.66
2023-03-22T14:19:42.476Z,99472.00
